sensor_id;sensor_type;location;lat;lon;timestamp;temperature;humidity
59146;DHT22;44928;53.074;6.646;2023-05-07T00:00:37;12.70;99.90
59146;DHT22;44928;53.074;6.646;2023-05-07T00:03:03;12.90;99.90
59146;DHT22;44928;53.074;6.646;2023-05-07T00:05:29;12.90;99.90
59146;DHT22;44928;53.074;6.646;2023-05-07T00:07:55;12.80;99.90
59146;DHT22;44928;53.074;6.646;2023-05-07T00:10:21;12.60;99.90
59146;DHT22;44928;53.074;6.646;2023-05-07T00:12:46;12.80;99.90
59146;DHT22;44928;53.074;6.646;2023-05-07T00:15:12;12.70;99.90
59146;DHT22;44928;53.074;6.646;2023-05-07T00:17:38;12.70;99.90
59146;DHT22;44928;53.074;6.646;2023-05-07T00:20:04;12.60;99.90
59146;DHT22;44928;53.074;6.646;2023-05-07T00:22:31;12.50;99.90
59146;DHT22;44928;53.074;6.646;2023-05-07T00:24:58;12.50;99.90
59146;DHT22;44928;53.074;6.646;2023-05-07T00:27:24;12.50;99.90
59146;DHT22;44928;53.074;6.646;2023-05-07T00:29:50;12.40;99.90
59146;DHT22;44928;53.074;6.646;2023-05-07T00:32:16;12.40;99.90
59146;DHT22;44928;53.074;6.646;2023-05-07T00:34:43;12.40;99.90
59146;DHT22;44928;53.074;6.646;2023-05-07T00:37:09;12.50;99.90
59146;DHT22;44928;53.074;6.646;2023-05-07T00:39:35;12.40;99.90
59146;DHT22;44928;53.074;6.646;2023-05-07T00:42:01;12.40;99.90
59146;DHT22;44928;53.074;6.646;2023-05-07T00:44:28;12.40;99.90
59146;DHT22;44928;53.074;6.646;2023-05-07T00:46:57;12.40;99.90
59146;DHT22;44928;53.074;6.646;2023-05-07T00:49:29;12.30;99.90
59146;DHT22;44928;53.074;6.646;2023-05-07T00:51:57;12.30;99.90
59146;DHT22;44928;53.074;6.646;2023-05-07T00:54:26;12.30;99.90
59146;DHT22;44928;53.074;6.646;2023-05-07T00:56:52;12.30;99.90
59146;DHT22;44928;53.074;6.646;2023-05-07T00:59:18;12.30;99.90
59146;DHT22;44928;53.074;6.646;2023-05-07T01:01:44;12.20;99.90
59146;DHT22;44928;53.074;6.646;2023-05-07T01:04:10;12.20;99.90
59146;DHT22;44928;53.074;6.646;2023-05-07T01:06:37;12.20;99.90
59146;DHT22;44928;53.074;6.646;2023-05-07T01:09:04;12.20;99.90
59146;DHT22;44928;53.074;6.646;2023-05-07T01:11:30;12.20;99.90
59146;DHT22;44928;53.074;6.646;2023-05-07T01:13:57;12.10;99.90
59146;DHT22;44928;53.074;6.646;2023-05-07T01:16:24;12.10;99.90
59146;DHT22;44928;53.074;6.646;2023-05-07T01:18:50;12.10;99.90
59146;DHT22;44928;53.074;6.646;2023-05-07T01:21:18;12.10;99.90
59146;DHT22;44928;53.074;6.646;2023-05-07T01:23:44;12.10;99.90
59146;DHT22;44928;53.074;6.646;2023-05-07T01:26:10;12.00;99.90
59146;DHT22;44928;53.074;6.646;2023-05-07T01:28:36;12.00;99.90
59146;DHT22;44928;53.074;6.646;2023-05-07T01:31:03;12.00;99.90
59146;DHT22;44928;53.074;6.646;2023-05-07T01:33:34;12.00;99.90
59146;DHT22;44928;53.074;6.646;2023-05-07T01:36:00;12.00;99.90
59146;DHT22;44928;53.074;6.646;2023-05-07T01:38:29;12.00;99.90
59146;DHT22;44928;53.074;6.646;2023-05-07T01:40:56;11.90;99.90
59146;DHT22;44928;53.074;6.646;2023-05-07T01:43:21;11.90;99.90
59146;DHT22;44928;53.074;6.646;2023-05-07T01:45:48;11.90;99.90
59146;DHT22;44928;53.074;6.646;2023-05-07T01:48:15;11.90;99.90
59146;DHT22;44928;53.074;6.646;2023-05-07T01:50:42;11.90;99.90
59146;DHT22;44928;53.074;6.646;2023-05-07T01:53:08;11.80;99.90
59146;DHT22;44928;53.074;6.646;2023-05-07T01:55:34;11.80;99.90
59146;DHT22;44928;53.074;6.646;2023-05-07T01:58:02;11.80;99.90
59146;DHT22;44928;53.074;6.646;2023-05-07T02:00:28;11.80;99.90
59146;DHT22;44928;53.074;6.646;2023-05-07T02:02:54;11.70;99.90
59146;DHT22;44928;53.074;6.646;2023-05-07T02:05:20;11.70;99.90
59146;DHT22;44928;53.074;6.646;2023-05-07T02:07:46;11.70;99.90
59146;DHT22;44928;53.074;6.646;2023-05-07T02:10:12;11.70;99.90
59146;DHT22;44928;53.074;6.646;2023-05-07T02:12:38;11.70;99.90
59146;DHT22;44928;53.074;6.646;2023-05-07T02:15:04;11.70;99.90
59146;DHT22;44928;53.074;6.646;2023-05-07T02:17:29;11.60;99.90
59146;DHT22;44928;53.074;6.646;2023-05-07T02:19:57;11.60;99.90
59146;DHT22;44928;53.074;6.646;2023-05-07T02:22:23;11.60;99.90
59146;DHT22;44928;53.074;6.646;2023-05-07T02:24:49;11.50;99.90
59146;DHT22;44928;53.074;6.646;2023-05-07T02:27:14;11.50;99.90
59146;DHT22;44928;53.074;6.646;2023-05-07T02:29:40;11.50;99.90
59146;DHT22;44928;53.074;6.646;2023-05-07T02:32:06;11.60;99.90
59146;DHT22;44928;53.074;6.646;2023-05-07T02:34:32;11.50;99.90
59146;DHT22;44928;53.074;6.646;2023-05-07T02:36:57;11.50;99.90
59146;DHT22;44928;53.074;6.646;2023-05-07T02:39:23;11.50;99.90
59146;DHT22;44928;53.074;6.646;2023-05-07T02:41:49;11.50;99.90
59146;DHT22;44928;53.074;6.646;2023-05-07T02:44:15;11.50;99.90
59146;DHT22;44928;53.074;6.646;2023-05-07T02:46:41;11.50;99.90
59146;DHT22;44928;53.074;6.646;2023-05-07T02:49:06;11.50;99.90
59146;DHT22;44928;53.074;6.646;2023-05-07T02:51:32;11.50;99.90
59146;DHT22;44928;53.074;6.646;2023-05-07T02:53:58;11.50;99.90
59146;DHT22;44928;53.074;6.646;2023-05-07T02:56:26;11.50;99.90
59146;DHT22;44928;53.074;6.646;2023-05-07T02:58:52;11.50;99.90
59146;DHT22;44928;53.074;6.646;2023-05-07T03:01:18;11.50;99.90
59146;DHT22;44928;53.074;6.646;2023-05-07T03:03:44;11.50;99.90
59146;DHT22;44928;53.074;6.646;2023-05-07T03:06:10;11.50;99.90
59146;DHT22;44928;53.074;6.646;2023-05-07T03:08:35;11.50;99.90
59146;DHT22;44928;53.074;6.646;2023-05-07T03:11:02;11.40;99.90
59146;DHT22;44928;53.074;6.646;2023-05-07T03:13:28;11.50;99.90
59146;DHT22;44928;53.074;6.646;2023-05-07T03:15:54;11.40;99.90
59146;DHT22;44928;53.074;6.646;2023-05-07T03:18:19;11.40;99.90
59146;DHT22;44928;53.074;6.646;2023-05-07T03:20:46;11.40;99.90
59146;DHT22;44928;53.074;6.646;2023-05-07T03:23:11;11.40;99.90
59146;DHT22;44928;53.074;6.646;2023-05-07T03:25:37;11.40;99.90
59146;DHT22;44928;53.074;6.646;2023-05-07T03:28:03;11.40;99.90
59146;DHT22;44928;53.074;6.646;2023-05-07T03:30:29;11.30;99.90
59146;DHT22;44928;53.074;6.646;2023-05-07T03:32:55;11.30;99.90
59146;DHT22;44928;53.074;6.646;2023-05-07T03:35:20;11.30;99.90
59146;DHT22;44928;53.074;6.646;2023-05-07T03:37:46;11.30;99.90
59146;DHT22;44928;53.074;6.646;2023-05-07T03:40:12;11.30;99.90
59146;DHT22;44928;53.074;6.646;2023-05-07T03:42:38;11.30;99.90
59146;DHT22;44928;53.074;6.646;2023-05-07T03:45:04;11.30;99.90
59146;DHT22;44928;53.074;6.646;2023-05-07T03:47:30;11.30;99.90
59146;DHT22;44928;53.074;6.646;2023-05-07T03:49:56;11.20;99.90
59146;DHT22;44928;53.074;6.646;2023-05-07T03:52:22;11.20;99.90
59146;DHT22;44928;53.074;6.646;2023-05-07T03:54:54;11.20;99.90
59146;DHT22;44928;53.074;6.646;2023-05-07T03:57:20;11.20;99.90
59146;DHT22;44928;53.074;6.646;2023-05-07T03:59:46;11.20;99.90
59146;DHT22;44928;53.074;6.646;2023-05-07T04:02:11;11.20;99.90
59146;DHT22;44928;53.074;6.646;2023-05-07T04:04:37;11.20;99.90
59146;DHT22;44928;53.074;6.646;2023-05-07T04:07:03;11.20;99.90
59146;DHT22;44928;53.074;6.646;2023-05-07T04:09:29;11.20;99.90
59146;DHT22;44928;53.074;6.646;2023-05-07T04:11:54;11.10;99.90
59146;DHT22;44928;53.074;6.646;2023-05-07T04:14:20;11.10;99.90
59146;DHT22;44928;53.074;6.646;2023-05-07T04:16:46;11.10;99.90
59146;DHT22;44928;53.074;6.646;2023-05-07T04:19:12;11.10;99.90
59146;DHT22;44928;53.074;6.646;2023-05-07T04:21:37;11.10;99.90
59146;DHT22;44928;53.074;6.646;2023-05-07T04:24:03;11.10;99.90
59146;DHT22;44928;53.074;6.646;2023-05-07T04:26:29;11.10;99.90
59146;DHT22;44928;53.074;6.646;2023-05-07T04:28:55;11.10;99.90
59146;DHT22;44928;53.074;6.646;2023-05-07T04:31:22;11.20;99.90
59146;DHT22;44928;53.074;6.646;2023-05-07T04:33:47;11.10;99.90
59146;DHT22;44928;53.074;6.646;2023-05-07T04:36:13;11.10;99.90
59146;DHT22;44928;53.074;6.646;2023-05-07T04:38:39;11.10;99.90
59146;DHT22;44928;53.074;6.646;2023-05-07T04:41:06;11.20;99.90
59146;DHT22;44928;53.074;6.646;2023-05-07T04:43:32;11.10;99.90
59146;DHT22;44928;53.074;6.646;2023-05-07T04:45:58;11.10;99.90
59146;DHT22;44928;53.074;6.646;2023-05-07T04:48:24;11.10;99.90
59146;DHT22;44928;53.074;6.646;2023-05-07T04:50:50;11.10;99.90
59146;DHT22;44928;53.074;6.646;2023-05-07T04:53:17;11.20;99.90
59146;DHT22;44928;53.074;6.646;2023-05-07T04:55:43;11.20;99.90
59146;DHT22;44928;53.074;6.646;2023-05-07T04:58:09;11.20;99.90
59146;DHT22;44928;53.074;6.646;2023-05-07T05:00:35;11.20;99.90
59146;DHT22;44928;53.074;6.646;2023-05-07T05:03:00;11.10;99.90
59146;DHT22;44928;53.074;6.646;2023-05-07T05:05:26;11.20;99.90
59146;DHT22;44928;53.074;6.646;2023-05-07T05:07:52;11.20;99.90
59146;DHT22;44928;53.074;6.646;2023-05-07T05:10:18;11.20;99.90
59146;DHT22;44928;53.074;6.646;2023-05-07T05:12:44;11.20;99.90
59146;DHT22;44928;53.074;6.646;2023-05-07T05:15:11;11.20;99.90
59146;DHT22;44928;53.074;6.646;2023-05-07T05:17:38;11.20;99.90
59146;DHT22;44928;53.074;6.646;2023-05-07T05:20:04;11.20;99.90
59146;DHT22;44928;53.074;6.646;2023-05-07T05:22:31;11.20;99.90
59146;DHT22;44928;53.074;6.646;2023-05-07T05:24:57;11.30;99.90
59146;DHT22;44928;53.074;6.646;2023-05-07T05:27:23;11.20;99.90
59146;DHT22;44928;53.074;6.646;2023-05-07T05:29:49;11.10;99.90
59146;DHT22;44928;53.074;6.646;2023-05-07T05:32:15;11.10;99.90
59146;DHT22;44928;53.074;6.646;2023-05-07T05:34:41;11.10;99.90
59146;DHT22;44928;53.074;6.646;2023-05-07T05:37:06;11.10;99.90
59146;DHT22;44928;53.074;6.646;2023-05-07T05:39:32;11.10;99.90
59146;DHT22;44928;53.074;6.646;2023-05-07T05:41:58;11.10;99.90
59146;DHT22;44928;53.074;6.646;2023-05-07T05:44:24;11.10;99.90
59146;DHT22;44928;53.074;6.646;2023-05-07T05:46:50;11.20;99.90
59146;DHT22;44928;53.074;6.646;2023-05-07T05:49:16;11.10;99.90
59146;DHT22;44928;53.074;6.646;2023-05-07T05:51:43;11.20;99.90
59146;DHT22;44928;53.074;6.646;2023-05-07T05:54:09;11.10;99.90
59146;DHT22;44928;53.074;6.646;2023-05-07T05:56:35;11.20;99.90
59146;DHT22;44928;53.074;6.646;2023-05-07T05:59:00;11.10;99.90
59146;DHT22;44928;53.074;6.646;2023-05-07T06:01:26;11.10;99.90
59146;DHT22;44928;53.074;6.646;2023-05-07T06:03:52;11.20;99.90
59146;DHT22;44928;53.074;6.646;2023-05-07T06:06:18;11.20;99.90
59146;DHT22;44928;53.074;6.646;2023-05-07T06:08:43;11.20;99.90
59146;DHT22;44928;53.074;6.646;2023-05-07T06:11:09;11.20;99.90
59146;DHT22;44928;53.074;6.646;2023-05-07T06:13:35;11.20;99.90
59146;DHT22;44928;53.074;6.646;2023-05-07T06:16:01;11.20;99.90
59146;DHT22;44928;53.074;6.646;2023-05-07T06:18:27;11.20;99.90
59146;DHT22;44928;53.074;6.646;2023-05-07T06:20:53;11.20;99.90
59146;DHT22;44928;53.074;6.646;2023-05-07T06:23:18;11.20;99.90
59146;DHT22;44928;53.074;6.646;2023-05-07T06:25:51;11.20;99.90
59146;DHT22;44928;53.074;6.646;2023-05-07T06:28:17;11.30;99.90
59146;DHT22;44928;53.074;6.646;2023-05-07T06:30:42;11.30;99.90
59146;DHT22;44928;53.074;6.646;2023-05-07T06:33:08;11.30;99.90
59146;DHT22;44928;53.074;6.646;2023-05-07T06:35:34;11.30;99.90
59146;DHT22;44928;53.074;6.646;2023-05-07T06:38:00;11.30;99.90
59146;DHT22;44928;53.074;6.646;2023-05-07T06:40:26;11.50;99.90
59146;DHT22;44928;53.074;6.646;2023-05-07T06:42:52;11.30;99.90
59146;DHT22;44928;53.074;6.646;2023-05-07T06:45:19;11.30;99.90
59146;DHT22;44928;53.074;6.646;2023-05-07T06:47:45;11.30;99.90
59146;DHT22;44928;53.074;6.646;2023-05-07T06:50:11;11.30;99.90
59146;DHT22;44928;53.074;6.646;2023-05-07T06:52:36;11.40;99.90
59146;DHT22;44928;53.074;6.646;2023-05-07T06:55:02;11.40;99.90
59146;DHT22;44928;53.074;6.646;2023-05-07T06:57:28;11.40;99.90
59146;DHT22;44928;53.074;6.646;2023-05-07T06:59:54;11.40;99.90
59146;DHT22;44928;53.074;6.646;2023-05-07T07:02:20;11.40;99.90
59146;DHT22;44928;53.074;6.646;2023-05-07T07:04:46;11.40;99.90
59146;DHT22;44928;53.074;6.646;2023-05-07T07:07:11;11.40;99.90
59146;DHT22;44928;53.074;6.646;2023-05-07T07:09:37;11.40;99.90
59146;DHT22;44928;53.074;6.646;2023-05-07T07:12:03;11.40;99.90
59146;DHT22;44928;53.074;6.646;2023-05-07T07:14:29;11.50;99.90
59146;DHT22;44928;53.074;6.646;2023-05-07T07:16:55;11.50;99.90
59146;DHT22;44928;53.074;6.646;2023-05-07T07:19:20;11.50;99.90
59146;DHT22;44928;53.074;6.646;2023-05-07T07:21:46;11.50;99.90
59146;DHT22;44928;53.074;6.646;2023-05-07T07:24:13;11.50;99.90
59146;DHT22;44928;53.074;6.646;2023-05-07T07:26:44;11.50;99.90
59146;DHT22;44928;53.074;6.646;2023-05-07T07:29:10;11.50;99.90
59146;DHT22;44928;53.074;6.646;2023-05-07T07:31:36;11.60;99.90
59146;DHT22;44928;53.074;6.646;2023-05-07T07:34:02;11.60;99.90
59146;DHT22;44928;53.074;6.646;2023-05-07T07:36:27;11.70;99.90
59146;DHT22;44928;53.074;6.646;2023-05-07T07:38:54;11.70;99.90
59146;DHT22;44928;53.074;6.646;2023-05-07T07:41:19;11.80;99.90
59146;DHT22;44928;53.074;6.646;2023-05-07T07:43:45;11.80;99.90
59146;DHT22;44928;53.074;6.646;2023-05-07T07:46:12;11.80;99.90
59146;DHT22;44928;53.074;6.646;2023-05-07T07:48:38;11.80;99.90
59146;DHT22;44928;53.074;6.646;2023-05-07T07:51:04;12.10;99.90
59146;DHT22;44928;53.074;6.646;2023-05-07T07:53:30;12.00;99.90
59146;DHT22;44928;53.074;6.646;2023-05-07T07:55:56;12.00;99.90
59146;DHT22;44928;53.074;6.646;2023-05-07T07:58:21;11.90;99.90
59146;DHT22;44928;53.074;6.646;2023-05-07T08:00:48;12.00;99.90
59146;DHT22;44928;53.074;6.646;2023-05-07T08:03:14;12.00;99.90
59146;DHT22;44928;53.074;6.646;2023-05-07T08:05:42;12.10;99.90
59146;DHT22;44928;53.074;6.646;2023-05-07T08:08:08;12.10;99.90
59146;DHT22;44928;53.074;6.646;2023-05-07T08:10:35;12.10;99.90
59146;DHT22;44928;53.074;6.646;2023-05-07T08:13:03;12.20;99.90
59146;DHT22;44928;53.074;6.646;2023-05-07T08:15:29;12.20;99.90
59146;DHT22;44928;53.074;6.646;2023-05-07T08:17:56;12.30;99.90
59146;DHT22;44928;53.074;6.646;2023-05-07T08:20:23;12.40;99.90
59146;DHT22;44928;53.074;6.646;2023-05-07T08:22:49;12.40;99.90
59146;DHT22;44928;53.074;6.646;2023-05-07T08:25:15;12.50;99.90
59146;DHT22;44928;53.074;6.646;2023-05-07T08:27:41;12.60;99.90
59146;DHT22;44928;53.074;6.646;2023-05-07T08:30:07;12.70;99.90
59146;DHT22;44928;53.074;6.646;2023-05-07T08:32:33;12.80;99.90
59146;DHT22;44928;53.074;6.646;2023-05-07T08:34:59;12.80;99.90
59146;DHT22;44928;53.074;6.646;2023-05-07T08:37:25;12.90;99.90
59146;DHT22;44928;53.074;6.646;2023-05-07T08:39:51;13.00;99.90
59146;DHT22;44928;53.074;6.646;2023-05-07T08:42:17;13.00;99.90
59146;DHT22;44928;53.074;6.646;2023-05-07T08:44:45;13.10;99.90
59146;DHT22;44928;53.074;6.646;2023-05-07T08:47:13;13.10;99.90
59146;DHT22;44928;53.074;6.646;2023-05-07T08:49:39;13.10;99.90
59146;DHT22;44928;53.074;6.646;2023-05-07T08:52:06;13.20;99.90
59146;DHT22;44928;53.074;6.646;2023-05-07T08:54:32;13.20;99.90
59146;DHT22;44928;53.074;6.646;2023-05-07T08:56:59;13.20;99.90
59146;DHT22;44928;53.074;6.646;2023-05-07T08:59:25;13.20;99.90
59146;DHT22;44928;53.074;6.646;2023-05-07T09:01:51;13.30;99.90
59146;DHT22;44928;53.074;6.646;2023-05-07T09:04:17;13.40;99.90
59146;DHT22;44928;53.074;6.646;2023-05-07T09:06:42;13.40;99.90
59146;DHT22;44928;53.074;6.646;2023-05-07T09:09:08;13.50;99.90
59146;DHT22;44928;53.074;6.646;2023-05-07T09:11:34;13.60;99.90
59146;DHT22;44928;53.074;6.646;2023-05-07T09:14:00;13.70;99.90
59146;DHT22;44928;53.074;6.646;2023-05-07T09:16:31;13.80;99.90
59146;DHT22;44928;53.074;6.646;2023-05-07T09:18:58;13.90;99.90
59146;DHT22;44928;53.074;6.646;2023-05-07T09:21:24;14.00;99.90
59146;DHT22;44928;53.074;6.646;2023-05-07T09:23:52;14.00;99.90
59146;DHT22;44928;53.074;6.646;2023-05-07T09:26:18;14.10;99.90
59146;DHT22;44928;53.074;6.646;2023-05-07T09:28:46;14.10;99.90
59146;DHT22;44928;53.074;6.646;2023-05-07T09:31:12;14.20;99.90
59146;DHT22;44928;53.074;6.646;2023-05-07T09:33:39;14.30;99.90
59146;DHT22;44928;53.074;6.646;2023-05-07T09:36:06;14.30;99.90
59146;DHT22;44928;53.074;6.646;2023-05-07T09:38:34;14.40;99.90
59146;DHT22;44928;53.074;6.646;2023-05-07T09:41:07;14.40;99.90
59146;DHT22;44928;53.074;6.646;2023-05-07T09:43:35;14.50;99.90
59146;DHT22;44928;53.074;6.646;2023-05-07T09:46:11;14.60;99.90
59146;DHT22;44928;53.074;6.646;2023-05-07T09:48:38;14.70;99.90
59146;DHT22;44928;53.074;6.646;2023-05-07T09:51:22;14.80;99.90
59146;DHT22;44928;53.074;6.646;2023-05-07T09:53:52;14.80;99.90
59146;DHT22;44928;53.074;6.646;2023-05-07T09:56:18;14.80;99.90
59146;DHT22;44928;53.074;6.646;2023-05-07T09:58:46;14.90;99.90
59146;DHT22;44928;53.074;6.646;2023-05-07T10:01:13;15.00;99.90
59146;DHT22;44928;53.074;6.646;2023-05-07T10:03:43;15.10;99.90
59146;DHT22;44928;53.074;6.646;2023-05-07T10:06:10;15.20;99.90
59146;DHT22;44928;53.074;6.646;2023-05-07T10:08:37;15.40;99.90
59146;DHT22;44928;53.074;6.646;2023-05-07T10:11:05;15.50;99.90
59146;DHT22;44928;53.074;6.646;2023-05-07T10:13:33;15.50;99.90
59146;DHT22;44928;53.074;6.646;2023-05-07T10:16:03;15.50;99.90
59146;DHT22;44928;53.074;6.646;2023-05-07T10:18:30;15.60;99.90
59146;DHT22;44928;53.074;6.646;2023-05-07T10:21:08;15.70;99.90
59146;DHT22;44928;53.074;6.646;2023-05-07T10:23:37;15.70;99.90
59146;DHT22;44928;53.074;6.646;2023-05-07T10:26:06;15.70;99.90
59146;DHT22;44928;53.074;6.646;2023-05-07T10:28:35;15.70;99.90
59146;DHT22;44928;53.074;6.646;2023-05-07T10:33:38;15.80;99.90
59146;DHT22;44928;53.074;6.646;2023-05-07T10:36:05;15.70;99.90
59146;DHT22;44928;53.074;6.646;2023-05-07T10:38:33;15.70;99.90
59146;DHT22;44928;53.074;6.646;2023-05-07T10:40:59;15.80;99.90
59146;DHT22;44928;53.074;6.646;2023-05-07T10:43:25;15.80;99.90
59146;DHT22;44928;53.074;6.646;2023-05-07T10:46:14;15.90;99.90
59146;DHT22;44928;53.074;6.646;2023-05-07T10:51:29;16.20;99.90
59146;DHT22;44928;53.074;6.646;2023-05-07T10:56:40;16.50;99.90
59146;DHT22;44928;53.074;6.646;2023-05-07T11:01:57;16.50;99.90
59146;DHT22;44928;53.074;6.646;2023-05-07T11:04:24;16.50;99.90
59146;DHT22;44928;53.074;6.646;2023-05-07T11:09:57;16.70;99.90
59146;DHT22;44928;53.074;6.646;2023-05-07T11:15:05;16.90;99.90
59146;DHT22;44928;53.074;6.646;2023-05-07T11:17:31;17.10;99.90
59146;DHT22;44928;53.074;6.646;2023-05-07T11:20:01;17.20;99.90
59146;DHT22;44928;53.074;6.646;2023-05-07T11:25:00;17.60;99.90
59146;DHT22;44928;53.074;6.646;2023-05-07T11:27:27;17.60;99.90
59146;DHT22;44928;53.074;6.646;2023-05-07T11:29:53;17.60;99.90
59146;DHT22;44928;53.074;6.646;2023-05-07T11:32:27;17.70;99.90
59146;DHT22;44928;53.074;6.646;2023-05-07T11:34:58;17.70;99.90
59146;DHT22;44928;53.074;6.646;2023-05-07T11:37:24;17.80;99.90
59146;DHT22;44928;53.074;6.646;2023-05-07T11:39:50;17.90;99.90
59146;DHT22;44928;53.074;6.646;2023-05-07T11:42:34;18.00;99.90
59146;DHT22;44928;53.074;6.646;2023-05-07T11:45:01;18.10;99.90
59146;DHT22;44928;53.074;6.646;2023-05-07T11:47:30;18.20;99.90
59146;DHT22;44928;53.074;6.646;2023-05-07T11:49:56;18.40;99.90
59146;DHT22;44928;53.074;6.646;2023-05-07T11:52:23;18.60;99.90
59146;DHT22;44928;53.074;6.646;2023-05-07T11:54:56;18.50;99.90
59146;DHT22;44928;53.074;6.646;2023-05-07T11:57:24;18.50;99.90
59146;DHT22;44928;53.074;6.646;2023-05-07T11:59:56;18.80;99.90
59146;DHT22;44928;53.074;6.646;2023-05-07T12:02:23;18.90;99.90
59146;DHT22;44928;53.074;6.646;2023-05-07T12:04:54;18.90;99.90
59146;DHT22;44928;53.074;6.646;2023-05-07T12:07:20;18.80;99.90
59146;DHT22;44928;53.074;6.646;2023-05-07T12:09:47;18.70;99.90
59146;DHT22;44928;53.074;6.646;2023-05-07T12:12:14;18.70;99.90
59146;DHT22;44928;53.074;6.646;2023-05-07T12:14:44;18.80;99.90
59146;DHT22;44928;53.074;6.646;2023-05-07T12:17:11;18.80;99.90
59146;DHT22;44928;53.074;6.646;2023-05-07T12:19:39;18.70;99.90
59146;DHT22;44928;53.074;6.646;2023-05-07T12:22:06;18.60;99.90
59146;DHT22;44928;53.074;6.646;2023-05-07T12:24:49;18.60;99.90
59146;DHT22;44928;53.074;6.646;2023-05-07T12:27:16;18.60;99.90
59146;DHT22;44928;53.074;6.646;2023-05-07T12:29:47;18.50;99.90
59146;DHT22;44928;53.074;6.646;2023-05-07T12:32:14;18.50;99.90
59146;DHT22;44928;53.074;6.646;2023-05-07T12:34:41;18.50;99.90
59146;DHT22;44928;53.074;6.646;2023-05-07T12:37:07;18.60;99.90
59146;DHT22;44928;53.074;6.646;2023-05-07T12:39:33;18.60;99.90
59146;DHT22;44928;53.074;6.646;2023-05-07T12:42:00;18.70;99.90
59146;DHT22;44928;53.074;6.646;2023-05-07T12:44:30;18.70;99.90
59146;DHT22;44928;53.074;6.646;2023-05-07T12:46:56;18.80;99.90
59146;DHT22;44928;53.074;6.646;2023-05-07T12:49:23;18.90;99.90
59146;DHT22;44928;53.074;6.646;2023-05-07T12:51:49;19.00;99.90
59146;DHT22;44928;53.074;6.646;2023-05-07T12:54:34;19.10;99.90
59146;DHT22;44928;53.074;6.646;2023-05-07T12:59:32;19.30;99.90
59146;DHT22;44928;53.074;6.646;2023-05-07T13:01:58;19.40;99.90
59146;DHT22;44928;53.074;6.646;2023-05-07T13:04:27;19.40;99.90
59146;DHT22;44928;53.074;6.646;2023-05-07T13:06:52;19.50;99.90
59146;DHT22;44928;53.074;6.646;2023-05-07T13:09:18;19.40;99.90
59146;DHT22;44928;53.074;6.646;2023-05-07T13:11:44;19.40;99.90
59146;DHT22;44928;53.074;6.646;2023-05-07T13:14:10;19.40;99.90
59146;DHT22;44928;53.074;6.646;2023-05-07T13:16:35;19.40;99.90
59146;DHT22;44928;53.074;6.646;2023-05-07T13:19:01;19.40;99.90
59146;DHT22;44928;53.074;6.646;2023-05-07T13:21:27;19.50;99.90
59146;DHT22;44928;53.074;6.646;2023-05-07T13:23:53;19.60;99.90
59146;DHT22;44928;53.074;6.646;2023-05-07T13:26:18;19.80;99.90
59146;DHT22;44928;53.074;6.646;2023-05-07T13:28:44;19.90;99.90
59146;DHT22;44928;53.074;6.646;2023-05-07T13:31:10;20.00;99.90
59146;DHT22;44928;53.074;6.646;2023-05-07T13:33:36;20.00;99.90
59146;DHT22;44928;53.074;6.646;2023-05-07T13:36:02;20.00;99.90
59146;DHT22;44928;53.074;6.646;2023-05-07T13:38:30;20.00;99.90
59146;DHT22;44928;53.074;6.646;2023-05-07T13:40:56;20.00;99.90
59146;DHT22;44928;53.074;6.646;2023-05-07T13:43:22;20.00;99.90
59146;DHT22;44928;53.074;6.646;2023-05-07T13:45:47;19.90;99.90
59146;DHT22;44928;53.074;6.646;2023-05-07T13:48:13;19.90;99.90
59146;DHT22;44928;53.074;6.646;2023-05-07T13:50:39;20.00;99.90
59146;DHT22;44928;53.074;6.646;2023-05-07T13:53:05;20.10;99.90
59146;DHT22;44928;53.074;6.646;2023-05-07T13:55:31;20.10;99.90
59146;DHT22;44928;53.074;6.646;2023-05-07T13:58:01;20.10;99.90
59146;DHT22;44928;53.074;6.646;2023-05-07T14:00:28;20.10;99.90
59146;DHT22;44928;53.074;6.646;2023-05-07T14:02:55;20.20;99.90
59146;DHT22;44928;53.074;6.646;2023-05-07T14:05:22;20.20;99.90
59146;DHT22;44928;53.074;6.646;2023-05-07T14:07:52;20.30;99.90
59146;DHT22;44928;53.074;6.646;2023-05-07T14:10:18;20.30;99.90
59146;DHT22;44928;53.074;6.646;2023-05-07T14:12:45;20.40;99.90
59146;DHT22;44928;53.074;6.646;2023-05-07T14:15:10;20.50;99.90
59146;DHT22;44928;53.074;6.646;2023-05-07T14:17:37;20.50;99.90
59146;DHT22;44928;53.074;6.646;2023-05-07T14:20:03;20.60;99.90
59146;DHT22;44928;53.074;6.646;2023-05-07T14:22:29;20.80;99.90
59146;DHT22;44928;53.074;6.646;2023-05-07T14:24:54;20.80;99.90
59146;DHT22;44928;53.074;6.646;2023-05-07T14:27:20;20.80;99.90
59146;DHT22;44928;53.074;6.646;2023-05-07T14:29:46;20.80;99.90
59146;DHT22;44928;53.074;6.646;2023-05-07T14:32:17;20.80;99.90
59146;DHT22;44928;53.074;6.646;2023-05-07T14:34:44;20.80;99.90
59146;DHT22;44928;53.074;6.646;2023-05-07T14:37:10;20.80;99.90
59146;DHT22;44928;53.074;6.646;2023-05-07T14:39:36;20.80;99.90
59146;DHT22;44928;53.074;6.646;2023-05-07T14:42:01;20.80;99.90
59146;DHT22;44928;53.074;6.646;2023-05-07T14:44:27;20.80;99.90
59146;DHT22;44928;53.074;6.646;2023-05-07T14:46:53;20.80;99.90
59146;DHT22;44928;53.074;6.646;2023-05-07T14:49:19;20.70;99.90
59146;DHT22;44928;53.074;6.646;2023-05-07T14:51:46;20.60;99.90
59146;DHT22;44928;53.074;6.646;2023-05-07T14:54:13;20.50;99.90
59146;DHT22;44928;53.074;6.646;2023-05-07T14:56:40;20.50;99.90
59146;DHT22;44928;53.074;6.646;2023-05-07T14:59:06;20.40;99.90
59146;DHT22;44928;53.074;6.646;2023-05-07T15:01:33;20.30;99.90
59146;DHT22;44928;53.074;6.646;2023-05-07T15:04:00;20.20;99.90
59146;DHT22;44928;53.074;6.646;2023-05-07T15:06:25;20.10;99.90
59146;DHT22;44928;53.074;6.646;2023-05-07T15:08:52;20.10;99.90
59146;DHT22;44928;53.074;6.646;2023-05-07T15:11:18;20.10;99.90
59146;DHT22;44928;53.074;6.646;2023-05-07T15:13:44;20.10;99.90
59146;DHT22;44928;53.074;6.646;2023-05-07T15:16:09;20.10;99.90
59146;DHT22;44928;53.074;6.646;2023-05-07T15:18:35;20.00;99.90
59146;DHT22;44928;53.074;6.646;2023-05-07T15:21:01;20.00;99.90
59146;DHT22;44928;53.074;6.646;2023-05-07T15:23:27;20.10;99.90
59146;DHT22;44928;53.074;6.646;2023-05-07T15:25:53;20.10;99.90
59146;DHT22;44928;53.074;6.646;2023-05-07T15:28:19;20.10;99.90
59146;DHT22;44928;53.074;6.646;2023-05-07T15:30:45;20.20;99.90
59146;DHT22;44928;53.074;6.646;2023-05-07T15:33:11;20.20;99.90
59146;DHT22;44928;53.074;6.646;2023-05-07T15:35:37;20.10;99.90
59146;DHT22;44928;53.074;6.646;2023-05-07T15:38:03;20.10;99.90
59146;DHT22;44928;53.074;6.646;2023-05-07T15:40:29;20.00;99.90
59146;DHT22;44928;53.074;6.646;2023-05-07T15:42:55;19.90;99.90
59146;DHT22;44928;53.074;6.646;2023-05-07T15:45:23;19.90;99.90
59146;DHT22;44928;53.074;6.646;2023-05-07T15:47:49;20.00;99.90